sensor_id;sensor_type;location;lat;lon;timestamp;temperature;humidity
19180;DHT22;9722;48.754;8.868;2022-10-20T00:01:55;9.90;99.90
19180;DHT22;9722;48.754;8.868;2022-10-20T00:05:16;9.90;99.90
19180;DHT22;9722;48.754;8.868;2022-10-20T00:08:37;9.90;99.90
19180;DHT22;9722;48.754;8.868;2022-10-20T00:11:58;9.90;99.90
19180;DHT22;9722;48.754;8.868;2022-10-20T00:15:18;9.90;99.90
19180;DHT22;9722;48.754;8.868;2022-10-20T00:18:39;9.80;99.90
19180;DHT22;9722;48.754;8.868;2022-10-20T00:21:59;9.90;99.90
19180;DHT22;9722;48.754;8.868;2022-10-20T00:25:20;9.80;99.90
19180;DHT22;9722;48.754;8.868;2022-10-20T00:28:41;9.70;99.90
19180;DHT22;9722;48.754;8.868;2022-10-20T00:32:02;9.70;99.90
19180;DHT22;9722;48.754;8.868;2022-10-20T00:35:22;9.60;99.90
19180;DHT22;9722;48.754;8.868;2022-10-20T00:38:43;9.60;99.90
19180;DHT22;9722;48.754;8.868;2022-10-20T00:42:04;9.60;99.90
19180;DHT22;9722;48.754;8.868;2022-10-20T00:45:25;9.50;99.90
19180;DHT22;9722;48.754;8.868;2022-10-20T00:48:51;9.40;99.90
19180;DHT22;9722;48.754;8.868;2022-10-20T00:52:14;9.40;99.90
19180;DHT22;9722;48.754;8.868;2022-10-20T00:55:40;9.40;99.90
19180;DHT22;9722;48.754;8.868;2022-10-20T00:59:03;9.40;99.90
19180;DHT22;9722;48.754;8.868;2022-10-20T01:02:24;9.40;99.90
19180;DHT22;9722;48.754;8.868;2022-10-20T01:05:44;9.40;99.90
19180;DHT22;9722;48.754;8.868;2022-10-20T01:09:05;9.40;99.90
19180;DHT22;9722;48.754;8.868;2022-10-20T01:16:34;9.40;99.90
19180;DHT22;9722;48.754;8.868;2022-10-20T01:23:43;9.40;99.90
19180;DHT22;9722;48.754;8.868;2022-10-20T01:27:31;9.40;99.90
19180;DHT22;9722;48.754;8.868;2022-10-20T01:30:57;9.40;99.90
19180;DHT22;9722;48.754;8.868;2022-10-20T01:34:39;9.40;99.90
19180;DHT22;9722;48.754;8.868;2022-10-20T01:38:03;9.30;99.90
19180;DHT22;9722;48.754;8.868;2022-10-20T01:41:48;9.30;99.90
19180;DHT22;9722;48.754;8.868;2022-10-20T01:45:09;9.30;99.90
19180;DHT22;9722;48.754;8.868;2022-10-20T01:48:33;9.20;99.90
19180;DHT22;9722;48.754;8.868;2022-10-20T01:51:55;9.20;99.90
19180;DHT22;9722;48.754;8.868;2022-10-20T01:55:17;9.20;99.90
19180;DHT22;9722;48.754;8.868;2022-10-20T02:09:47;9.10;99.90
19180;DHT22;9722;48.754;8.868;2022-10-20T02:13:10;9.10;99.90
19180;DHT22;9722;48.754;8.868;2022-10-20T02:16:35;9.10;99.90
19180;DHT22;9722;48.754;8.868;2022-10-20T02:19:57;9.10;99.90
19180;DHT22;9722;48.754;8.868;2022-10-20T02:23:18;9.10;99.90
19180;DHT22;9722;48.754;8.868;2022-10-20T02:26:39;9.10;99.90
19180;DHT22;9722;48.754;8.868;2022-10-20T02:30:06;9.10;99.90
19180;DHT22;9722;48.754;8.868;2022-10-20T02:33:28;9.10;99.90
19180;DHT22;9722;48.754;8.868;2022-10-20T02:36:49;9.20;99.90
19180;DHT22;9722;48.754;8.868;2022-10-20T02:40:10;9.20;99.90
19180;DHT22;9722;48.754;8.868;2022-10-20T02:43:31;9.20;99.90
19180;DHT22;9722;48.754;8.868;2022-10-20T02:46:51;9.20;99.90
19180;DHT22;9722;48.754;8.868;2022-10-20T02:50:12;9.20;99.90
19180;DHT22;9722;48.754;8.868;2022-10-20T02:53:32;9.10;99.90
19180;DHT22;9722;48.754;8.868;2022-10-20T02:56:53;9.10;99.90
19180;DHT22;9722;48.754;8.868;2022-10-20T03:00:14;9.10;99.90
19180;DHT22;9722;48.754;8.868;2022-10-20T03:03:35;9.20;99.90
19180;DHT22;9722;48.754;8.868;2022-10-20T03:06:55;9.20;99.90
19180;DHT22;9722;48.754;8.868;2022-10-20T03:10:16;9.20;99.90
19180;DHT22;9722;48.754;8.868;2022-10-20T03:13:36;9.30;99.90
19180;DHT22;9722;48.754;8.868;2022-10-20T03:16:57;9.30;99.90
19180;DHT22;9722;48.754;8.868;2022-10-20T03:20:18;9.40;99.90
19180;DHT22;9722;48.754;8.868;2022-10-20T03:23:38;9.50;99.90
19180;DHT22;9722;48.754;8.868;2022-10-20T03:26:59;9.60;99.90
19180;DHT22;9722;48.754;8.868;2022-10-20T03:30:19;9.60;99.90
19180;DHT22;9722;48.754;8.868;2022-10-20T03:33:40;9.70;99.90
19180;DHT22;9722;48.754;8.868;2022-10-20T03:37:01;9.80;99.90
19180;DHT22;9722;48.754;8.868;2022-10-20T03:40:21;9.80;99.90
19180;DHT22;9722;48.754;8.868;2022-10-20T03:43:42;9.90;99.90
19180;DHT22;9722;48.754;8.868;2022-10-20T03:47:02;9.90;99.90
19180;DHT22;9722;48.754;8.868;2022-10-20T03:50:23;10.00;99.90
19180;DHT22;9722;48.754;8.868;2022-10-20T03:53:43;10.10;99.90
19180;DHT22;9722;48.754;8.868;2022-10-20T03:57:04;10.10;99.90
19180;DHT22;9722;48.754;8.868;2022-10-20T04:00:24;10.20;99.90
19180;DHT22;9722;48.754;8.868;2022-10-20T04:03:45;10.20;99.90
19180;DHT22;9722;48.754;8.868;2022-10-20T04:07:05;10.30;99.90
19180;DHT22;9722;48.754;8.868;2022-10-20T04:10:26;10.30;99.90
19180;DHT22;9722;48.754;8.868;2022-10-20T04:13:46;10.30;99.90
19180;DHT22;9722;48.754;8.868;2022-10-20T04:17:07;10.30;99.90
19180;DHT22;9722;48.754;8.868;2022-10-20T04:20:27;10.40;99.90
19180;DHT22;9722;48.754;8.868;2022-10-20T04:23:48;10.40;99.90
19180;DHT22;9722;48.754;8.868;2022-10-20T04:27:08;10.50;99.90
19180;DHT22;9722;48.754;8.868;2022-10-20T04:30:29;10.50;99.90
19180;DHT22;9722;48.754;8.868;2022-10-20T04:33:49;10.50;99.90
19180;DHT22;9722;48.754;8.868;2022-10-20T04:37:10;10.50;99.90
19180;DHT22;9722;48.754;8.868;2022-10-20T04:40:30;10.50;99.90
19180;DHT22;9722;48.754;8.868;2022-10-20T04:43:52;10.60;99.90
19180;DHT22;9722;48.754;8.868;2022-10-20T04:47:12;10.60;99.90
19180;DHT22;9722;48.754;8.868;2022-10-20T04:50:33;10.60;99.90
19180;DHT22;9722;48.754;8.868;2022-10-20T04:53:53;10.60;99.90
19180;DHT22;9722;48.754;8.868;2022-10-20T04:57:14;10.70;99.90
19180;DHT22;9722;48.754;8.868;2022-10-20T05:00:36;10.70;99.90
19180;DHT22;9722;48.754;8.868;2022-10-20T05:03:57;10.70;99.90
19180;DHT22;9722;48.754;8.868;2022-10-20T05:07:17;10.70;99.90
19180;DHT22;9722;48.754;8.868;2022-10-20T05:10:38;10.70;99.90
19180;DHT22;9722;48.754;8.868;2022-10-20T05:13:59;10.60;99.90
19180;DHT22;9722;48.754;8.868;2022-10-20T05:17:19;10.60;99.90
19180;DHT22;9722;48.754;8.868;2022-10-20T05:20:40;10.60;99.90
19180;DHT22;9722;48.754;8.868;2022-10-20T05:24:03;10.60;99.90
19180;DHT22;9722;48.754;8.868;2022-10-20T05:27:24;10.60;99.90
19180;DHT22;9722;48.754;8.868;2022-10-20T05:30:45;10.60;99.90
19180;DHT22;9722;48.754;8.868;2022-10-20T05:34:06;10.60;99.90
19180;DHT22;9722;48.754;8.868;2022-10-20T05:37:27;10.70;99.90
19180;DHT22;9722;48.754;8.868;2022-10-20T05:40:48;10.70;99.90
19180;DHT22;9722;48.754;8.868;2022-10-20T05:44:11;10.70;99.90
19180;DHT22;9722;48.754;8.868;2022-10-20T05:47:33;10.70;99.90
19180;DHT22;9722;48.754;8.868;2022-10-20T05:50:53;10.70;99.90
19180;DHT22;9722;48.754;8.868;2022-10-20T05:54:14;10.70;99.90
19180;DHT22;9722;48.754;8.868;2022-10-20T05:57:34;10.70;99.90
19180;DHT22;9722;48.754;8.868;2022-10-20T06:01:07;10.70;99.90
19180;DHT22;9722;48.754;8.868;2022-10-20T06:04:28;10.70;99.90
19180;DHT22;9722;48.754;8.868;2022-10-20T06:07:52;10.70;99.90
19180;DHT22;9722;48.754;8.868;2022-10-20T06:11:14;10.70;99.90
19180;DHT22;9722;48.754;8.868;2022-10-20T06:14:34;10.70;99.90
19180;DHT22;9722;48.754;8.868;2022-10-20T06:17:55;10.70;99.90
19180;DHT22;9722;48.754;8.868;2022-10-20T06:21:24;10.80;99.90
19180;DHT22;9722;48.754;8.868;2022-10-20T06:24:45;10.80;99.90
19180;DHT22;9722;48.754;8.868;2022-10-20T06:28:06;10.90;99.90
19180;DHT22;9722;48.754;8.868;2022-10-20T06:31:29;10.90;99.90
19180;DHT22;9722;48.754;8.868;2022-10-20T06:34:50;10.90;99.90
19180;DHT22;9722;48.754;8.868;2022-10-20T06:38:10;11.00;99.90
19180;DHT22;9722;48.754;8.868;2022-10-20T06:41:31;11.00;99.90
19180;DHT22;9722;48.754;8.868;2022-10-20T06:44:52;11.10;99.90
19180;DHT22;9722;48.754;8.868;2022-10-20T06:48:14;11.20;99.90
19180;DHT22;9722;48.754;8.868;2022-10-20T06:51:34;11.30;99.90
19180;DHT22;9722;48.754;8.868;2022-10-20T06:54:55;11.50;99.90
19180;DHT22;9722;48.754;8.868;2022-10-20T06:58:15;11.60;99.90
19180;DHT22;9722;48.754;8.868;2022-10-20T07:01:37;11.90;99.90
19180;DHT22;9722;48.754;8.868;2022-10-20T07:04:58;12.20;99.90
19180;DHT22;9722;48.754;8.868;2022-10-20T07:08:18;12.40;99.90
19180;DHT22;9722;48.754;8.868;2022-10-20T07:11:39;12.50;99.90
19180;DHT22;9722;48.754;8.868;2022-10-20T07:15:00;12.80;99.90
19180;DHT22;9722;48.754;8.868;2022-10-20T07:18:20;13.10;99.90
19180;DHT22;9722;48.754;8.868;2022-10-20T07:21:41;13.30;99.90
19180;DHT22;9722;48.754;8.868;2022-10-20T07:25:02;13.40;99.90
19180;DHT22;9722;48.754;8.868;2022-10-20T07:28:25;13.50;99.90
19180;DHT22;9722;48.754;8.868;2022-10-20T07:31:46;13.80;99.90
19180;DHT22;9722;48.754;8.868;2022-10-20T07:35:07;14.10;99.90
19180;DHT22;9722;48.754;8.868;2022-10-20T07:38:27;14.50;99.90
19180;DHT22;9722;48.754;8.868;2022-10-20T07:41:48;14.90;99.90
19180;DHT22;9722;48.754;8.868;2022-10-20T07:45:09;15.00;99.90
19180;DHT22;9722;48.754;8.868;2022-10-20T07:48:30;15.20;99.90
19180;DHT22;9722;48.754;8.868;2022-10-20T07:51:51;15.60;99.90
19180;DHT22;9722;48.754;8.868;2022-10-20T07:55:12;15.90;99.10
19180;DHT22;9722;48.754;8.868;2022-10-20T07:58:33;15.90;98.60
19180;DHT22;9722;48.754;8.868;2022-10-20T08:01:53;16.00;98.60
19180;DHT22;9722;48.754;8.868;2022-10-20T08:05:14;16.20;98.00
19180;DHT22;9722;48.754;8.868;2022-10-20T08:08:34;16.20;97.60
19180;DHT22;9722;48.754;8.868;2022-10-20T08:11:55;16.50;97.80
19180;DHT22;9722;48.754;8.868;2022-10-20T08:15:15;17.20;96.00
19180;DHT22;9722;48.754;8.868;2022-10-20T08:18:36;17.90;94.50
19180;DHT22;9722;48.754;8.868;2022-10-20T08:21:57;18.40;92.80
19180;DHT22;9722;48.754;8.868;2022-10-20T08:25:17;18.80;91.30
19180;DHT22;9722;48.754;8.868;2022-10-20T08:28:38;19.10;90.20
19180;DHT22;9722;48.754;8.868;2022-10-20T08:31:58;19.50;88.20
19180;DHT22;9722;48.754;8.868;2022-10-20T08:35:20;19.60;86.90
19180;DHT22;9722;48.754;8.868;2022-10-20T08:38:41;19.90;85.10
19180;DHT22;9722;48.754;8.868;2022-10-20T08:42:03;20.30;83.30
19180;DHT22;9722;48.754;8.868;2022-10-20T08:45:25;20.60;80.80
19180;DHT22;9722;48.754;8.868;2022-10-20T08:48:47;20.90;79.30
19180;DHT22;9722;48.754;8.868;2022-10-20T08:52:12;21.30;77.80
19180;DHT22;9722;48.754;8.868;2022-10-20T08:55:33;21.70;76.40
19180;DHT22;9722;48.754;8.868;2022-10-20T08:58:54;22.10;73.90
19180;DHT22;9722;48.754;8.868;2022-10-20T09:02:15;22.60;72.20
19180;DHT22;9722;48.754;8.868;2022-10-20T09:05:40;23.20;70.50
19180;DHT22;9722;48.754;8.868;2022-10-20T09:09:02;23.20;68.60
19180;DHT22;9722;48.754;8.868;2022-10-20T09:12:23;22.80;69.20
19180;DHT22;9722;48.754;8.868;2022-10-20T09:15:44;22.40;69.90
19180;DHT22;9722;48.754;8.868;2022-10-20T09:19:19;22.50;69.70
19180;DHT22;9722;48.754;8.868;2022-10-20T09:22:40;22.80;69.20
19180;DHT22;9722;48.754;8.868;2022-10-20T09:26:01;22.70;68.40
19180;DHT22;9722;48.754;8.868;2022-10-20T09:29:33;22.20;69.40
19180;DHT22;9722;48.754;8.868;2022-10-20T09:32:54;21.50;71.90
19180;DHT22;9722;48.754;8.868;2022-10-20T09:36:17;21.00;72.70
19180;DHT22;9722;48.754;8.868;2022-10-20T09:43:10;20.20;75.60
19180;DHT22;9722;48.754;8.868;2022-10-20T09:46:38;19.80;76.90
19180;DHT22;9722;48.754;8.868;2022-10-20T09:50:04;19.40;78.20
19180;DHT22;9722;48.754;8.868;2022-10-20T09:53:39;19.10;79.80
19180;DHT22;9722;48.754;8.868;2022-10-20T09:57:07;18.90;81.00
19180;DHT22;9722;48.754;8.868;2022-10-20T10:00:36;18.80;82.30
19180;DHT22;9722;48.754;8.868;2022-10-20T10:04:03;18.70;83.10
19180;DHT22;9722;48.754;8.868;2022-10-20T10:10:51;18.70;84.80
19180;DHT22;9722;48.754;8.868;2022-10-20T10:14:21;18.70;85.10
19180;DHT22;9722;48.754;8.868;2022-10-20T10:17:43;18.60;85.70
19180;DHT22;9722;48.754;8.868;2022-10-20T10:21:09;18.50;86.50
19180;DHT22;9722;48.754;8.868;2022-10-20T10:24:42;18.50;87.30
19180;DHT22;9722;48.754;8.868;2022-10-20T10:31:51;18.70;88.00
19180;DHT22;9722;48.754;8.868;2022-10-20T10:35:26;18.80;87.60
19180;DHT22;9722;48.754;8.868;2022-10-20T10:38:48;18.90;88.00
19180;DHT22;9722;48.754;8.868;2022-10-20T10:42:33;18.80;87.80
19180;DHT22;9722;48.754;8.868;2022-10-20T10:46:06;18.70;88.40
19180;DHT22;9722;48.754;8.868;2022-10-20T10:57:09;18.90;88.90
19180;DHT22;9722;48.754;8.868;2022-10-20T11:12:13;19.00;88.80
19180;DHT22;9722;48.754;8.868;2022-10-20T11:26:23;18.90;89.10
19180;DHT22;9722;48.754;8.868;2022-10-20T11:29:56;18.80;89.60
19180;DHT22;9722;48.754;8.868;2022-10-20T11:33:38;18.70;89.70
19180;DHT22;9722;48.754;8.868;2022-10-20T11:37:06;18.70;90.10
19180;DHT22;9722;48.754;8.868;2022-10-20T11:40:42;18.70;90.20
19180;DHT22;9722;48.754;8.868;2022-10-20T11:44:07;18.80;90.10
19180;DHT22;9722;48.754;8.868;2022-10-20T11:47:36;18.80;90.10
19180;DHT22;9722;48.754;8.868;2022-10-20T11:55:08;18.80;90.20
19180;DHT22;9722;48.754;8.868;2022-10-20T12:13:10;18.20;91.00
19180;DHT22;9722;48.754;8.868;2022-10-20T12:33:59;18.00;92.10
19180;DHT22;9722;48.754;8.868;2022-10-20T12:40:50;18.10;92.20
19180;DHT22;9722;48.754;8.868;2022-10-20T12:44:16;18.10;92.30
19180;DHT22;9722;48.754;8.868;2022-10-20T12:47:38;18.20;92.20
19180;DHT22;9722;48.754;8.868;2022-10-20T12:51:07;18.20;92.20
19180;DHT22;9722;48.754;8.868;2022-10-20T12:54:39;18.30;92.20
19180;DHT22;9722;48.754;8.868;2022-10-20T12:58:30;18.30;92.30
19180;DHT22;9722;48.754;8.868;2022-10-20T13:05:42;18.40;92.40
19180;DHT22;9722;48.754;8.868;2022-10-20T13:12:27;18.60;92.50
19180;DHT22;9722;48.754;8.868;2022-10-20T13:15:51;18.70;92.00
19180;DHT22;9722;48.754;8.868;2022-10-20T13:19:16;18.80;91.70
19180;DHT22;9722;48.754;8.868;2022-10-20T13:22:39;19.10;91.60
19180;DHT22;9722;48.754;8.868;2022-10-20T13:26:28;19.40;91.40
19180;DHT22;9722;48.754;8.868;2022-10-20T13:29:49;19.70;90.60
19180;DHT22;9722;48.754;8.868;2022-10-20T13:33:37;19.80;89.70
19180;DHT22;9722;48.754;8.868;2022-10-20T13:37:18;19.70;89.10
19180;DHT22;9722;48.754;8.868;2022-10-20T13:40:55;19.60;89.10
19180;DHT22;9722;48.754;8.868;2022-10-20T13:44:23;19.40;89.70
19180;DHT22;9722;48.754;8.868;2022-10-20T13:51:28;19.00;90.50
19180;DHT22;9722;48.754;8.868;2022-10-20T13:54:50;18.80;90.90
19180;DHT22;9722;48.754;8.868;2022-10-20T13:58:20;18.70;91.10
19180;DHT22;9722;48.754;8.868;2022-10-20T14:01:46;18.60;91.70
19180;DHT22;9722;48.754;8.868;2022-10-20T14:05:12;18.50;91.70
19180;DHT22;9722;48.754;8.868;2022-10-20T14:08:42;18.50;91.80
19180;DHT22;9722;48.754;8.868;2022-10-20T14:12:05;18.40;91.90
19180;DHT22;9722;48.754;8.868;2022-10-20T14:15:31;18.40;92.30
19180;DHT22;9722;48.754;8.868;2022-10-20T14:19:00;18.40;92.30
19180;DHT22;9722;48.754;8.868;2022-10-20T14:22:23;18.40;92.70
19180;DHT22;9722;48.754;8.868;2022-10-20T14:25:44;18.40;92.80
19180;DHT22;9722;48.754;8.868;2022-10-20T14:29:05;18.30;93.00
19180;DHT22;9722;48.754;8.868;2022-10-20T14:32:28;18.30;93.20
19180;DHT22;9722;48.754;8.868;2022-10-20T14:35:53;18.20;93.50
19180;DHT22;9722;48.754;8.868;2022-10-20T14:39:28;18.20;93.90
19180;DHT22;9722;48.754;8.868;2022-10-20T14:42:51;18.20;94.20
19180;DHT22;9722;48.754;8.868;2022-10-20T14:46:20;18.10;94.30
19180;DHT22;9722;48.754;8.868;2022-10-20T14:49:47;18.10;94.40
19180;DHT22;9722;48.754;8.868;2022-10-20T14:56:42;18.00;94.70
19180;DHT22;9722;48.754;8.868;2022-10-20T15:07:27;17.80;95.60
19180;DHT22;9722;48.754;8.868;2022-10-20T15:10:51;17.80;96.00
19180;DHT22;9722;48.754;8.868;2022-10-20T15:14:15;17.70;96.20
19180;DHT22;9722;48.754;8.868;2022-10-20T15:17:46;17.70;96.40
19180;DHT22;9722;48.754;8.868;2022-10-20T15:21:07;17.70;96.60
19180;DHT22;9722;48.754;8.868;2022-10-20T15:24:28;17.70;96.80
19180;DHT22;9722;48.754;8.868;2022-10-20T15:27:48;17.70;96.90
19180;DHT22;9722;48.754;8.868;2022-10-20T15:34:32;17.60;97.40
19180;DHT22;9722;48.754;8.868;2022-10-20T15:37:53;17.50;97.70
19180;DHT22;9722;48.754;8.868;2022-10-20T15:41:18;17.50;97.90
19180;DHT22;9722;48.754;8.868;2022-10-20T15:44:39;17.40;98.10
19180;DHT22;9722;48.754;8.868;2022-10-20T15:47:59;17.30;98.30
19180;DHT22;9722;48.754;8.868;2022-10-20T15:51:25;17.30;98.50
19180;DHT22;9722;48.754;8.868;2022-10-20T15:54:46;17.30;98.70
19180;DHT22;9722;48.754;8.868;2022-10-20T15:58:07;17.30;98.90
19180;DHT22;9722;48.754;8.868;2022-10-20T16:01:27;17.20;99.10
19180;DHT22;9722;48.754;8.868;2022-10-20T16:04:48;17.10;99.30
19180;DHT22;9722;48.754;8.868;2022-10-20T16:08:09;17.10;99.60
19180;DHT22;9722;48.754;8.868;2022-10-20T16:11:29;17.00;99.90
19180;DHT22;9722;48.754;8.868;2022-10-20T16:14:50;17.00;99.90
19180;DHT22;9722;48.754;8.868;2022-10-20T16:18:10;16.90;99.90
19180;DHT22;9722;48.754;8.868;2022-10-20T16:21:31;16.90;99.90
19180;DHT22;9722;48.754;8.868;2022-10-20T16:24:52;16.80;99.90
19180;DHT22;9722;48.754;8.868;2022-10-20T16:28:13;16.90;99.90
19180;DHT22;9722;48.754;8.868;2022-10-20T16:31:34;16.80;99.90
19180;DHT22;9722;48.754;8.868;2022-10-20T16:34:54;16.70;99.90
19180;DHT22;9722;48.754;8.868;2022-10-20T16:38:15;16.70;99.90
19180;DHT22;9722;48.754;8.868;2022-10-20T16:41:36;16.70;99.90
19180;DHT22;9722;48.754;8.868;2022-10-20T16:44:56;16.70;99.90
19180;DHT22;9722;48.754;8.868;2022-10-20T16:48:17;16.70;99.90
19180;DHT22;9722;48.754;8.868;2022-10-20T16:51:38;16.70;99.90
19180;DHT22;9722;48.754;8.868;2022-10-20T16:54:58;16.70;99.90
19180;DHT22;9722;48.754;8.868;2022-10-20T16:58:19;16.70;99.90
19180;DHT22;9722;48.754;8.868;2022-10-20T17:01:39;16.60;99.90
19180;DHT22;9722;48.754;8.868;2022-10-20T17:05:00;16.60;99.90
19180;DHT22;9722;48.754;8.868;2022-10-20T17:08:21;16.60;99.90
19180;DHT22;9722;48.754;8.868;2022-10-20T17:11:41;16.60;99.90
19180;DHT22;9722;48.754;8.868;2022-10-20T17:15:02;16.60;99.90
19180;DHT22;9722;48.754;8.868;2022-10-20T17:18:23;16.60;99.90
19180;DHT22;9722;48.754;8.868;2022-10-20T17:21:43;16.60;99.90
19180;DHT22;9722;48.754;8.868;2022-10-20T17:25:04;16.50;99.90
19180;DHT22;9722;48.754;8.868;2022-10-20T17:28:25;16.50;99.90
19180;DHT22;9722;48.754;8.868;2022-10-20T17:31:46;16.50;99.90
19180;DHT22;9722;48.754;8.868;2022-10-20T17:35:06;16.40;99.90
19180;DHT22;9722;48.754;8.868;2022-10-20T17:38:28;16.40;99.90
19180;DHT22;9722;48.754;8.868;2022-10-20T17:41:49;16.40;99.90
19180;DHT22;9722;48.754;8.868;2022-10-20T17:45:09;16.40;99.90
19180;DHT22;9722;48.754;8.868;2022-10-20T17:48:30;16.30;99.90
19180;DHT22;9722;48.754;8.868;2022-10-20T17:51:50;16.30;99.90
19180;DHT22;9722;48.754;8.868;2022-10-20T17:55:11;16.30;99.90
19180;DHT22;9722;48.754;8.868;2022-10-20T17:58:32;16.20;99.90
19180;DHT22;9722;48.754;8.868;2022-10-20T18:01:55;16.20;99.90
19180;DHT22;9722;48.754;8.868;2022-10-20T18:05:17;16.20;99.90
19180;DHT22;9722;48.754;8.868;2022-10-20T18:08:38;16.20;99.90
19180;DHT22;9722;48.754;8.868;2022-10-20T18:11:59;16.20;99.90
19180;DHT22;9722;48.754;8.868;2022-10-20T18:15:21;16.20;99.90
19180;DHT22;9722;48.754;8.868;2022-10-20T18:18:42;16.20;99.90
19180;DHT22;9722;48.754;8.868;2022-10-20T18:22:02;16.20;99.90
19180;DHT22;9722;48.754;8.868;2022-10-20T18:25:23;16.20;99.90
19180;DHT22;9722;48.754;8.868;2022-10-20T18:28:44;16.20;99.90
19180;DHT22;9722;48.754;8.868;2022-10-20T18:32:05;16.20;99.90
19180;DHT22;9722;48.754;8.868;2022-10-20T18:35:25;16.20;99.90
19180;DHT22;9722;48.754;8.868;2022-10-20T18:38:47;16.10;99.90
19180;DHT22;9722;48.754;8.868;2022-10-20T18:42:07;16.10;99.90
19180;DHT22;9722;48.754;8.868;2022-10-20T18:45:28;16.10;99.90
19180;DHT22;9722;48.754;8.868;2022-10-20T18:48:49;16.00;99.90
19180;DHT22;9722;48.754;8.868;2022-10-20T18:52:09;16.10;99.90
19180;DHT22;9722;48.754;8.868;2022-10-20T18:55:30;16.00;99.90
19180;DHT22;9722;48.754;8.868;2022-10-20T18:59:01;16.00;99.90
19180;DHT22;9722;48.754;8.868;2022-10-20T19:02:22;15.90;99.90
19180;DHT22;9722;48.754;8.868;2022-10-20T19:05:43;15.80;99.90
19180;DHT22;9722;48.754;8.868;2022-10-20T19:09:09;15.80;99.90
19180;DHT22;9722;48.754;8.868;2022-10-20T19:12:30;15.70;99.90
19180;DHT22;9722;48.754;8.868;2022-10-20T19:15:51;15.70;99.90
19180;DHT22;9722;48.754;8.868;2022-10-20T19:19:11;15.60;99.90
19180;DHT22;9722;48.754;8.868;2022-10-20T19:22:32;15.60;99.90
19180;DHT22;9722;48.754;8.868;2022-10-20T19:26:21;15.70;99.90
19180;DHT22;9722;48.754;8.868;2022-10-20T19:29:42;15.60;99.90
19180;DHT22;9722;48.754;8.868;2022-10-20T19:33:02;15.50;99.90
19180;DHT22;9722;48.754;8.868;2022-10-20T19:36:24;15.50;99.90
19180;DHT22;9722;48.754;8.868;2022-10-20T19:39:45;15.50;99.90
19180;DHT22;9722;48.754;8.868;2022-10-20T19:43:05;15.50;99.90
19180;DHT22;9722;48.754;8.868;2022-10-20T19:46:26;15.40;99.90
19180;DHT22;9722;48.754;8.868;2022-10-20T19:49:46;15.40;99.90
19180;DHT22;9722;48.754;8.868;2022-10-20T19:53:07;15.40;99.90
19180;DHT22;9722;48.754;8.868;2022-10-20T19:56:28;15.40;99.90
19180;DHT22;9722;48.754;8.868;2022-10-20T19:59:48;15.40;99.90
19180;DHT22;9722;48.754;8.868;2022-10-20T20:03:09;15.30;99.90
19180;DHT22;9722;48.754;8.868;2022-10-20T20:06:30;15.20;99.90
19180;DHT22;9722;48.754;8.868;2022-10-20T20:09:50;15.20;99.90
19180;DHT22;9722;48.754;8.868;2022-10-20T20:13:11;15.30;99.90
19180;DHT22;9722;48.754;8.868;2022-10-20T20:16:31;15.30;99.90
19180;DHT22;9722;48.754;8.868;2022-10-20T20:19:52;15.30;99.90
19180;DHT22;9722;48.754;8.868;2022-10-20T20:23:14;15.30;99.90
19180;DHT22;9722;48.754;8.868;2022-10-20T20:26:36;15.30;99.90
19180;DHT22;9722;48.754;8.868;2022-10-20T20:29:56;15.30;99.90
19180;DHT22;9722;48.754;8.868;2022-10-20T20:33:22;15.30;99.90
19180;DHT22;9722;48.754;8.868;2022-10-20T20:36:43;15.30;99.90
19180;DHT22;9722;48.754;8.868;2022-10-20T20:40:04;15.40;99.90
19180;DHT22;9722;48.754;8.868;2022-10-20T20:43:25;15.40;99.90
19180;DHT22;9722;48.754;8.868;2022-10-20T20:46:45;15.40;99.90
19180;DHT22;9722;48.754;8.868;2022-10-20T20:50:06;15.40;99.90
19180;DHT22;9722;48.754;8.868;2022-10-20T20:53:27;15.40;99.90
19180;DHT22;9722;48.754;8.868;2022-10-20T20:56:47;15.50;99.90
19180;DHT22;9722;48.754;8.868;2022-10-20T21:00:09;15.50;99.90
19180;DHT22;9722;48.754;8.868;2022-10-20T21:03:30;15.40;99.90
19180;DHT22;9722;48.754;8.868;2022-10-20T21:06:50;15.50;99.90
19180;DHT22;9722;48.754;8.868;2022-10-20T21:10:12;15.50;99.90
19180;DHT22;9722;48.754;8.868;2022-10-20T21:13:33;15.40;99.90
19180;DHT22;9722;48.754;8.868;2022-10-20T21:16:55;15.30;99.90
19180;DHT22;9722;48.754;8.868;2022-10-20T21:20:15;15.20;99.90
19180;DHT22;9722;48.754;8.868;2022-10-20T21:23:37;15.20;99.90
19180;DHT22;9722;48.754;8.868;2022-10-20T21:26:58;15.10;99.90
19180;DHT22;9722;48.754;8.868;2022-10-20T21:30:18;15.10;99.90
19180;DHT22;9722;48.754;8.868;2022-10-20T21:33:39;15.10;99.90
19180;DHT22;9722;48.754;8.868;2022-10-20T21:37:00;15.00;99.90
19180;DHT22;9722;48.754;8.868;2022-10-20T21:40:21;15.00;99.90
19180;DHT22;9722;48.754;8.868;2022-10-20T21:43:44;15.00;99.90
19180;DHT22;9722;48.754;8.868;2022-10-20T21:47:04;14.90;99.90
19180;DHT22;9722;48.754;8.868;2022-10-20T21:50:25;14.90;99.90
19180;DHT22;9722;48.754;8.868;2022-10-20T21:53:46;14.90;99.90
19180;DHT22;9722;48.754;8.868;2022-10-20T21:57:06;14.90;99.90
19180;DHT22;9722;48.754;8.868;2022-10-20T22:00:27;14.80;99.90
19180;DHT22;9722;48.754;8.868;2022-10-20T22:03:48;14.80;99.90
19180;DHT22;9722;48.754;8.868;2022-10-20T22:07:09;14.70;99.90
19180;DHT22;9722;48.754;8.868;2022-10-20T22:10:30;14.70;99.90
19180;DHT22;9722;48.754;8.868;2022-10-20T22:13:50;14.70;99.90
19180;DHT22;9722;48.754;8.868;2022-10-20T22:17:12;14.60;99.90
19180;DHT22;9722;48.754;8.868;2022-10-20T22:20:36;14.60;99.90
19180;DHT22;9722;48.754;8.868;2022-10-20T22:23:58;14.50;99.90
19180;DHT22;9722;48.754;8.868;2022-10-20T22:27:19;14.50;99.90
19180;DHT22;9722;48.754;8.868;2022-10-20T22:30:39;14.40;99.90
19180;DHT22;9722;48.754;8.868;2022-10-20T22:34:00;14.40;99.90
19180;DHT22;9722;48.754;8.868;2022-10-20T22:37:20;14.40;99.90
19180;DHT22;9722;48.754;8.868;2022-10-20T22:40:41;14.30;99.90
19180;DHT22;9722;48.754;8.868;2022-10-20T22:44:01;14.30;99.90
19180;DHT22;9722;48.754;8.868;2022-10-20T22:47:22;14.20;99.90
19180;DHT22;9722;48.754;8.868;2022-10-20T22:50:42;14.20;99.90
19180;DHT22;9722;48.754;8.868;2022-10-20T22:54:03;14.00;99.90
19180;DHT22;9722;48.754;8.868;2022-10-20T22:57:23;14.00;99.90
19180;DHT22;9722;48.754;8.868;2022-10-20T23:00:44;14.00;99.90
19180;DHT22;9722;48.754;8.868;2022-10-20T23:04:04;13.90;99.90
19180;DHT22;9722;48.754;8.868;2022-10-20T23:07:25;13.90;99.90
19180;DHT22;9722;48.754;8.868;2022-10-20T23:10:57;13.80;99.90
19180;DHT22;9722;48.754;8.868;2022-10-20T23:14:18;13.80;99.90
19180;DHT22;9722;48.754;8.868;2022-10-20T23:17:38;13.80;99.90
19180;DHT22;9722;48.754;8.868;2022-10-20T23:20:59;13.70;99.90
19180;DHT22;9722;48.754;8.868;2022-10-20T23:24:20;13.80;99.90
19180;DHT22;9722;48.754;8.868;2022-10-20T23:27:40;13.70;99.90
19180;DHT22;9722;48.754;8.868;2022-10-20T23:31:15;13.70;99.90
19180;DHT22;9722;48.754;8.868;2022-10-20T23:34:36;13.80;99.90
19180;DHT22;9722;48.754;8.868;2022-10-20T23:37:56;13.70;99.90
19180;DHT22;9722;48.754;8.868;2022-10-20T23:41:18;13.70;99.90
19180;DHT22;9722;48.754;8.868;2022-10-20T23:44:38;13.60;99.90
19180;DHT22;9722;48.754;8.868;2022-10-20T23:47:59;13.60;99.90